KFRG/FRG METAR and TAF weather

Enter ICAO airport designator
Station Type Date Time Source
KFRG METAR 2019/12/13 16:53 UTC NOAA

KFRG 131653Z 11006KT 10SM BKN019 BKN023 OVC031 09/07 A3033 RMK AO2 SLP270 T00940072


Station Type Date Time Source
KFRG Decoded METAR 2019/12/13 16:53 UTC NOAA

FARMINGDALE REPUBLIC AIRPORT , NY, United States (KFRG) 40-44N 073-25W 21M
Dec 13, 2019 - 11:53 AM EST / 2019.12.13 1653 UTC
Wind: from the ESE (110 degrees) at 7 MPH (6 KT):0
Visibility: 10 mile(s):0
Sky conditions: overcast
Temperature: 48.9 F (9.4 C)
Dew Point: 45.0 F (7.2 C)
Relative Humidity: 86%
Pressure (altimeter): 30.33 in. Hg (1027 hPa)
ob: KFRG 131653Z 11006KT 10SM BKN019 BKN023 OVC031 09/07 A3033 RMK AO2 SLP270 T00940072
cycle: 17

Station Type Date Time Source
KFRG TAF UTC NOAA

Error!

Example: see airport list